Time;durP1;ratioP1;P1;durP2;ratioP2;P2;SDS_P1;SDS_P2;PMS_P1;PMS_P2;Temp;Humidity;BMP_temperature;BMP_pressure;BME280_temperature;BME280_humidity;BME280_pressure;Samples;Min_cycle;Max_cycle;Signal;HPM_P1;HPM_P2
2023/09/15 00:00:26;;;;;;;;;7.33;6.67;;;;;20.38;58.97;101003.34;5059569;28;45452;-84
2023/09/15 00:02:58;;;;;;;;;8.00;8.00;;;;;20.35;58.85;100998.22;5059541;28;45350;-82
2023/09/15 00:05:26;;;;;;;;;6.67;6.33;;;;;20.30;59.08;100985.09;5059974;27;45351;-83
2023/09/15 00:07:52;;;;;;;;;6.33;6.33;;;;;20.34;58.91;101000.06;5059532;28;45458;-81
2023/09/15 00:10:19;;;;;;;;;8.00;8.00;;;;;20.23;58.95;100973.16;5058899;28;45503;-80
2023/09/15 00:12:45;;;;;;;;;7.33;7.33;;;;;20.21;59.16;100975.16;5058873;28;45510;-84
2023/09/15 00:15:11;;;;;;;;;6.00;6.00;;;;;20.32;58.93;100994.81;5058258;28;45393;-80
2023/09/15 00:17:39;;;;;;;;;8.00;8.00;;;;;20.09;59.05;100969.00;5059352;28;45687;-82
2023/09/15 00:20:25;;;;;;;;;7.67;6.33;;;;;20.04;59.21;100961.31;5058683;27;45406;-80
2023/09/15 00:22:52;;;;;;;;;5.67;5.67;;;;;20.25;58.91;100998.19;5058985;28;45286;-82
2023/09/15 00:25:26;;;;;;;;;5.33;5.33;;;;;20.25;59.00;100998.19;5059387;28;45410;-82
2023/09/15 00:27:54;;;;;;;;;8.00;8.00;;;;;20.21;59.09;100992.22;5060238;28;45806;-82
2023/09/15 00:30:24;;;;;;;;;8.00;6.00;;;;;20.13;59.47;100988.50;5060508;28;45520;-82
2023/09/15 00:32:51;;;;;;;;;8.00;6.00;;;;;20.18;59.37;100991.63;5064847;28;45173;-80
2023/09/15 00:35:19;;;;;;;;;9.67;7.00;;;;;19.99;59.53;100960.88;5065947;28;45282;-82
2023/09/15 00:37:46;;;;;;;;;9.00;9.00;;;;;20.12;59.44;100982.22;5065399;28;45232;-83
2023/09/15 00:40:13;;;;;;;;;6.33;6.33;;;;;19.92;59.66;100967.84;5061680;28;46328;-81
2023/09/15 00:42:41;;;;;;;;;9.33;7.67;;;;;19.87;60.02;100956.56;5061837;28;45239;-80
2023/09/15 00:45:09;;;;;;;;;9.33;8.00;;;;;20.00;60.51;100989.59;5061234;28;45278;-78
2023/09/15 00:47:34;;;;;;;;;8.67;7.33;;;;;19.84;61.22;100961.41;5060935;28;45545;-80
2023/09/15 00:50:02;;;;;;;;;8.33;8.00;;;;;19.91;61.38;100978.75;5060833;28;46292;-79
2023/09/15 00:52:29;;;;;;;;;7.00;7.00;;;;;19.72;61.94;100964.19;5059115;28;45527;-80
2023/09/15 00:54:54;;;;;;;;;10.00;10.00;;;;;19.79;62.64;100986.09;5061396;28;45399;-82
2023/09/15 00:57:21;;;;;;;;;9.00;8.33;;;;;19.71;62.28;100975.13;5060890;28;45317;-79
2023/09/15 00:59:48;;;;;;;;;10.67;9.33;;;;;19.68;63.10;100986.19;5059571;28;47163;-81
2023/09/15 01:02:13;;;;;;;;;8.33;7.33;;;;;19.63;63.47;100986.59;5060140;28;45222;-81
2023/09/15 01:04:40;;;;;;;;;12.67;9.00;;;;;19.57;63.53;100986.28;5062622;28;45347;-80
2023/09/15 01:07:07;;;;;;;;;9.33;9.33;;;;;19.52;64.11;100988.47;5061564;28;45586;-80
2023/09/15 01:09:32;;;;;;;;;12.67;10.00;;;;;19.48;64.41;100987.03;5060778;28;45946;-80
2023/09/15 01:11:58;;;;;;;;;9.00;9.00;;;;;19.36;64.28;100968.25;5060553;28;45312;-81
2023/09/15 01:14:23;;;;;;;;;10.00;10.00;;;;;19.40;64.13;100985.00;5059161;28;45439;-83
2023/09/15 01:16:54;;;;;;;;;10.00;10.00;;;;;19.23;64.56;100954.13;5060832;28;45421;-85
2023/09/15 01:19:58;;;;;;;;;10.33;9.67;;;;;19.29;64.79;100977.00;5058825;28;56206;-82
2023/09/15 01:22:55;;;;;;;;;10.67;10.67;;;;;19.24;65.32;100973.84;5056795;28;45593;-86
2023/09/15 01:25:33;;;;;;;;;12.67;10.00;;;;;19.19;65.52;100986.88;5059243;28;45564;-84
2023/09/15 01:28:41;;;;;;;;;10.67;10.00;;;;;19.17;65.57;100978.06;5060257;28;45240;-84
2023/09/15 01:31:07;;;;;;;;;7.33;7.00;;;;;19.11;65.42;100974.03;5057703;28;47671;-79
2023/09/15 01:33:33;;;;;;;;;10.67;10.00;;;;;19.09;65.44;100971.47;5056958;28;45348;-79
2023/09/15 01:35:59;;;;;;;;;10.67;9.33;;;;;19.04;65.43;100959.41;5057853;28;45321;-82
2023/09/15 01:38:24;;;;;;;;;8.00;8.00;;;;;18.97;66.44;100952.81;5058191;28;45381;-83
2023/09/15 01:40:50;;;;;;;;;11.00;10.00;;;;;19.07;65.96;100969.91;5058283;28;57474;-86
2023/09/15 01:43:15;;;;;;;;;12.67;12.33;;;;;19.03;66.14;100966.63;5073586;28;45302;-85
2023/09/15 01:45:40;;;;;;;;;13.00;13.00;;;;;19.02;66.08;100958.69;5057557;28;63814;-86
2023/09/15 01:48:06;;;;;;;;;10.00;9.00;;;;;19.06;65.99;100971.75;5058259;28;45308;-81
2023/09/15 01:50:32;;;;;;;;;12.33;10.33;;;;;19.06;66.32;100968.19;5058462;28;46984;-86
2023/09/15 01:52:58;;;;;;;;;11.00;10.33;;;;;18.98;66.13;100960.75;5059509;28;45407;-81
2023/09/15 01:55:24;;;;;;;;;9.33;9.33;;;;;18.96;66.20;100953.78;5059814;28;45485;-82
2023/09/15 01:57:49;;;;;;;;;12.67;11.33;;;;;18.86;66.46;100942.94;5059558;28;45242;-82
2023/09/15 02:00:17;;;;;;;;;10.00;10.00;;;;;18.95;66.50;100962.88;5056999;28;60363;-80
2023/09/15 02:02:42;;;;;;;;;11.67;10.33;;;;;18.92;66.60;100963.13;5056800;28;45242;-80
2023/09/15 02:05:14;;;;;;;;;11.00;11.00;;;;;18.86;67.00;100965.34;5056671;28;53008;-79
2023/09/15 02:07:39;;;;;;;;;11.67;10.00;;;;;18.78;66.61;100951.69;5057627;28;45309;-80
2023/09/15 02:10:05;;;;;;;;;13.00;11.00;;;;;18.75;66.60;100954.66;5058076;28;47306;-78
2023/09/15 02:12:30;;;;;;;;;10.00;10.00;;;;;18.81;67.02;100961.34;5057963;28;45328;-78
2023/09/15 02:14:56;;;;;;;;;11.00;11.00;;;;;18.77;66.89;100971.53;5058458;28;45226;-79
2023/09/15 02:17:21;;;;;;;;;12.33;11.00;;;;;18.75;67.20;100970.81;5059124;28;45313;-79
2023/09/15 02:19:46;;;;;;;;;12.00;10.33;;;;;18.71;67.20;100965.78;5057784;28;59151;-80
2023/09/15 02:22:12;;;;;;;;;9.00;9.00;;;;;18.67;67.28;100965.22;5057495;28;45248;-79
2023/09/15 02:24:37;;;;;;;;;11.67;10.67;;;;;18.57;67.11;100953.44;5056744;28;51001;-79
2023/09/15 02:27:03;;;;;;;;;10.33;9.67;;;;;18.55;67.25;100953.59;5057410;28;45477;-83
2023/09/15 02:29:30;;;;;;;;;14.33;13.33;;;;;18.55;67.83;100955.44;5057058;28;45974;-79
2023/09/15 02:31:55;;;;;;;;;12.00;11.00;;;;;18.52;67.74;100955.69;5056237;28;45350;-79
2023/09/15 02:34:20;;;;;;;;;11.67;11.00;;;;;18.52;67.85;100955.69;5056515;28;49002;-84
2023/09/15 02:36:45;;;;;;;;;12.00;12.00;;;;;18.52;68.02;100961.06;5056947;28;48035;-84
2023/09/15 02:39:11;;;;;;;;;11.33;10.33;;;;;18.41;67.91;100948.50;5055993;28;71644;-84
2023/09/15 02:41:36;;;;;;;;;10.67;10.67;;;;;18.37;68.15;100936.28;5056391;28;68960;-85
2023/09/15 02:44:02;;;;;;;;;12.67;12.00;;;;;18.50;67.91;100954.97;5055484;28;63727;-86
2023/09/15 02:46:27;;;;;;;;;12.00;12.00;;;;;18.52;67.81;100950.31;5057921;28;45251;-83
2023/09/15 02:48:52;;;;;;;;;13.33;13.33;;;;;18.54;67.69;100953.72;5057597;28;46195;-81
2023/09/15 02:51:18;;;;;;;;;10.50;10.50;;;;;18.46;67.80;100940.03;5055999;28;68276;-80
2023/09/15 02:53:43;;;;;;;;;11.33;10.00;;;;;18.51;67.70;100945.91;5056648;28;50161;-83
2023/09/15 02:56:08;;;;;;;;;10.67;9.00;;;;;18.55;67.96;100950.03;5057357;28;45260;-83
2023/09/15 02:58:34;;;;;;;;;9.33;9.33;;;;;18.51;68.03;100949.44;5056884;27;45290;-83
2023/09/15 03:01:00;;;;;;;;;10.00;9.00;;;;;18.49;68.06;100948.72;5056533;28;45319;-83
2023/09/15 03:03:25;;;;;;;;;10.00;10.00;;;;;18.46;68.25;100946.25;5056818;28;45307;-82
2023/09/15 03:06:02;;;;;;;;;15.33;13.00;;;;;18.23;68.41;100920.44;5057025;28;45564;-83
2023/09/15 03:08:28;;;;;;;;;11.67;11.67;;;;;18.39;68.28;100947.78;5056600;28;46692;-81
2023/09/15 03:10:54;;;;;;;;;11.00;11.00;;;;;18.26;68.55;100929.09;5056540;28;45313;-84
2023/09/15 03:13:20;;;;;;;;;9.00;9.00;;;;;18.21;68.57;100931.28;5056504;28;45502;-79
2023/09/15 03:15:45;;;;;;;;;10.67;10.67;;;;;18.13;68.17;100925.72;5056772;28;45605;-80
2023/09/15 03:18:11;;;;;;;;;10.33;9.67;;;;;18.10;68.69;100928.66;5056901;28;45998;-85
2023/09/15 03:20:36;;;;;;;;;9.00;9.00;;;;;18.02;68.67;100925.72;5056756;28;45329;-85
2023/09/15 03:23:01;;;;;;;;;12.67;11.00;;;;;18.08;68.75;100944.03;5057407;28;45313;-83
2023/09/15 03:25:27;;;;;;;;;11.00;11.00;;;;;18.10;69.06;100950.19;5056212;28;45448;-83
2023/09/15 03:27:53;;;;;;;;;12.67;11.33;;;;;18.08;68.99;100945.88;5056745;28;46020;-84
2023/09/15 03:30:18;;;;;;;;;11.00;11.00;;;;;18.03;69.25;100943.59;5056790;28;45372;-87
2023/09/15 03:32:44;;;;;;;;;9.33;9.33;;;;;17.91;69.21;100917.66;5056899;28;45326;-84
2023/09/15 03:35:09;;;;;;;;;10.00;10.00;;;;;17.94;69.41;100930.88;5059249;28;45324;-84
2023/09/15 03:37:34;;;;;;;;;9.67;8.67;;;;;17.97;69.71;100933.34;5060194;28;45240;-86
2023/09/15 03:40:00;;;;;;;;;10.67;9.33;;;;;17.96;69.53;100926.22;5060834;28;45262;-87
2023/09/15 03:42:25;;;;;;;;;8.00;8.00;;;;;17.93;69.60;100926.47;5058996;28;45219;-85
2023/09/15 03:44:50;;;;;;;;;12.00;11.00;;;;;17.82;69.79;100907.66;5059678;28;59383;-84
2023/09/15 03:47:16;;;;;;;;;16.67;15.00;;;;;17.85;69.74;100912.81;5063177;28;46036;-83
2023/09/15 03:49:41;;;;;;;;;11.67;10.33;;;;;17.91;70.07;100921.22;5066239;28;45177;-81
2023/09/15 03:52:07;;;;;;;;;9.00;9.00;;;;;17.89;69.78;100930.41;5070713;28;44887;-84
2023/09/15 03:54:32;;;;;;;;;19.00;15.00;;;;;17.82;70.01;100918.41;5063674;28;45377;-87
2023/09/15 03:56:57;;;;;;;;;11.67;10.00;;;;;17.88;69.87;100929.53;5062965;28;45243;-88
2023/09/15 03:59:23;;;;;;;;;10.00;10.00;;;;;17.88;70.06;100934.06;5060421;28;45323;-85
2023/09/15 04:01:48;;;;;;;;;12.67;12.67;;;;;17.86;70.00;100926.13;5059942;28;62007;-85
2023/09/15 04:04:14;;;;;;;;;10.67;10.67;;;;;17.89;70.17;100915.09;5060746;28;45561;-84
2023/09/15 04:06:39;;;;;;;;;12.00;9.67;;;;;17.82;70.39;100918.41;5059998;28;45399;-83
2023/09/15 04:09:09;;;;;;;;;10.33;10.33;;;;;17.80;69.72;100906.91;5059877;28;45466;-88
2023/09/15 04:11:35;;;;;;;;;11.00;11.00;;;;;17.90;70.05;100907.88;5061915;28;45426;-84
2023/09/15 04:14:00;;;;;;;;;10.33;9.67;;;;;17.94;69.60;100903.97;5062552;28;45349;-87
2023/09/15 04:16:25;;;;;;;;;14.00;13.00;;;;;17.85;69.53;100885.91;5059621;28;65239;-85
2023/09/15 04:18:51;;;;;;;;;9.00;9.00;;;;;17.99;69.97;100901.75;5062000;28;70069;-82
2023/09/15 04:21:16;;;;;;;;;11.00;10.00;;;;;17.96;69.85;100900.16;5061050;28;45257;-81
2023/09/15 04:23:41;;;;;;;;;9.33;9.33;;;;;17.92;69.99;100890.63;5060898;28;55537;-77
2023/09/15 04:26:07;;;;;;;;;12.00;12.00;;;;;17.95;70.09;100886.81;5059657;28;45713;-86
2023/09/15 04:28:32;;;;;;;;;17.33;15.33;;;;;17.93;70.10;100878.88;5060106;28;45180;-88
2023/09/15 04:30:57;;;;;;;;;12.00;11.00;;;;;17.89;70.25;100881.97;5060394;28;45248;-88
2023/09/15 04:33:23;;;;;;;;;14.00;12.00;;;;;18.01;69.69;100890.88;5061670;28;45614;-86
2023/09/15 04:35:48;;;;;;;;;11.00;11.00;;;;;18.03;69.72;100888.91;5059118;28;46090;-82
2023/09/15 04:38:14;;;;;;;;;10.67;8.67;;;;;18.07;69.91;100891.19;5058725;28;45228;-80
2023/09/15 04:40:39;;;;;;;;;12.67;11.33;;;;;18.06;69.48;100889.50;5058881;28;45242;-85
2023/09/15 04:43:05;;;;;;;;;10.00;10.00;;;;;18.11;69.42;100892.69;5057846;28;54231;-83
2023/09/15 04:45:30;;;;;;;;;12.00;11.67;;;;;18.09;69.90;100881.16;5058372;28;46001;-81
2023/09/15 04:47:55;;;;;;;;;12.33;11.00;;;;;18.08;69.61;100886.66;5058258;28;45317;-83
2023/09/15 04:50:21;;;;;;;;;12.00;12.00;;;;;17.90;69.55;100843.31;5059583;28;45494;-89
2023/09/15 04:52:46;;;;;;;;;15.00;12.33;;;;;18.03;69.61;100870.06;5060235;28;45362;-85
2023/09/15 04:55:11;;;;;;;;;14.67;12.00;;;;;18.03;69.71;100872.75;5058842;28;45402;-84
2023/09/15 04:57:37;;;;;;;;;12.67;12.00;;;;;17.99;69.77;100877.53;5059352;28;57070;-88
2023/09/15 05:00:12;;;;;;;;;12.67;11.67;;;;;17.84;69.93;100846.50;5059823;28;53801;-82
2023/09/15 05:02:42;;;;;;;;;12.33;12.33;;;;;17.86;70.19;100856.16;5051253;28;45378;-83
2023/09/15 05:05:08;;;;;;;;;15.00;12.00;;;;;17.91;70.00;100863.84;5060787;28;45314;-79
2023/09/15 05:07:33;;;;;;;;;17.67;15.33;;;;;17.84;70.26;100858.13;5059376;28;45480;-82
2023/09/15 05:09:58;;;;;;;;;14.67;13.00;;;;;17.92;70.18;100868.25;5058185;28;45425;-83
2023/09/15 05:12:24;;;;;;;;;13.00;11.00;;;;;17.96;69.82;100869.69;5073993;28;61366;-81
2023/09/15 05:14:49;;;;;;;;;14.33;11.67;;;;;17.91;70.06;100871.94;5057350;28;45412;-81
2023/09/15 05:17:14;;;;;;;;;9.67;9.33;;;;;17.89;70.32;100876.59;5058270;28;45286;-81
2023/09/15 05:19:40;;;;;;;;;11.67;11.67;;;;;17.92;70.33;100879.00;5059054;28;45392;-88
2023/09/15 05:22:07;;;;;;;;;13.00;11.33;;;;;17.89;70.11;100882.81;5058443;28;45572;-78
2023/09/15 05:24:33;;;;;;;;;12.00;12.00;;;;;17.94;70.25;100890.50;5056710;28;57660;-81
2023/09/15 05:26:58;;;;;;;;;14.33;13.00;;;;;17.94;70.33;100890.50;5058718;28;45373;-88
2023/09/15 05:29:24;;;;;;;;;19.67;15.67;;;;;18.01;70.11;100886.34;5059573;28;45352;-83
2023/09/15 05:31:49;;;;;;;;;13.67;13.67;;;;;17.97;69.84;100866.06;5057237;28;45449;-80
2023/09/15 05:34:14;;;;;;;;;12.67;12.67;;;;;18.06;69.97;100878.72;5058147;28;45247;-81
2023/09/15 05:36:40;;;;;;;;;13.00;10.67;;;;;18.13;69.94;100889.84;5057633;28;45414;-80
2023/09/15 05:39:05;;;;;;;;;13.33;12.67;;;;;18.15;69.81;100888.75;5057129;28;45314;-81
2023/09/15 05:41:30;;;;;;;;;11.33;11.33;;;;;18.15;70.43;100894.13;5057440;28;45531;-81
2023/09/15 05:43:56;;;;;;;;;11.67;10.33;;;;;18.10;69.82;100879.31;5056950;28;45453;-85
2023/09/15 05:46:22;;;;;;;;;14.00;13.33;;;;;18.15;70.21;100888.75;5056893;28;54714;-83
2023/09/15 05:48:47;;;;;;;;;15.67;14.33;;;;;18.18;69.66;100883.09;5057547;27;45358;-81
2023/09/15 05:51:12;;;;;;;;;15.00;15.00;;;;;18.20;70.29;100888.34;5059121;28;56640;-80
2023/09/15 05:53:38;;;;;;;;;12.00;12.00;;;;;18.22;69.81;100879.16;5059222;28;54371;-82
2023/09/15 05:56:04;;;;;;;;;14.00;11.00;;;;;18.32;69.23;100881.09;5058964;28;45305;-83
2023/09/15 05:58:29;;;;;;;;;13.00;11.00;;;;;18.26;68.82;100853.72;5059917;28;45244;-81
2023/09/15 06:00:56;;;;;;;;;18.67;16.33;;;;;18.39;68.46;100863.44;5057063;28;45473;-85
2023/09/15 06:03:25;;;;;;;;;13.00;10.67;;;;;18.56;67.78;100874.50;5059283;28;45414;-80
2023/09/15 06:05:51;;;;;;;;;9.33;9.33;;;;;18.65;67.86;100880.97;5053622;28;45422;-81
2023/09/15 06:08:19;;;;;;;;;8.33;8.33;;;;;18.65;67.49;100864.81;5053446;28;45504;-83
2023/09/15 06:10:46;;;;;;;;;9.67;9.67;;;;;18.50;67.30;100850.78;5055159;28;45602;-84
2023/09/15 06:13:11;;;;;;;;;10.00;8.00;;;;;18.55;67.12;100853.06;5058433;28;47174;-83
2023/09/15 06:15:36;;;;;;;;;12.33;11.00;;;;;18.81;66.97;100880.50;5057439;28;45448;-85
2023/09/15 06:18:02;;;;;;;;;8.00;8.00;;;;;18.91;66.59;100881.44;5059659;28;45393;-84
2023/09/15 06:20:31;;;;;;;;;7.00;6.67;;;;;18.91;66.22;100861.72;5057086;28;45523;-85
2023/09/15 06:22:57;;;;;;;;;7.00;7.00;;;;;18.98;65.51;100868.25;5057031;27;46113;-83
2023/09/15 06:25:22;;;;;;;;;10.00;7.33;;;;;19.13;65.20;100875.00;5057107;28;45425;-88
2023/09/15 06:27:49;;;;;;;;;10.33;9.00;;;;;19.13;65.46;100859.69;5056565;28;45516;-87
2023/09/15 06:30:14;;;;;;;;;8.67;7.33;;;;;19.24;64.71;100874.94;5058670;28;45523;-87
2023/09/15 06:32:40;;;;;;;;;7.67;7.67;;;;;19.09;64.65;100836.69;5056929;28;45784;-86
2023/09/15 06:35:06;;;;;;;;;9.00;7.67;;;;;19.34;64.50;100873.13;5056124;28;67709;-83
2023/09/15 06:37:31;;;;;;;;;10.00;9.00;;;;;19.34;64.74;100875.84;5055858;28;45379;-86
2023/09/15 06:39:57;;;;;;;;;12.00;12.00;;;;;19.25;64.93;100887.41;5054717;28;45706;-83
2023/09/15 06:42:22;;;;;;;;;9.00;9.00;;;;;19.06;65.17;100858.53;5054686;28;47059;-81
2023/09/15 06:44:48;;;;;;;;;11.33;11.33;;;;;19.14;65.29;100882.09;5056624;28;45374;-83
2023/09/15 06:47:13;;;;;;;;;11.33;9.00;;;;;19.04;65.55;100857.81;5058277;28;45329;-81
2023/09/15 06:49:38;;;;;;;;;11.00;11.00;;;;;19.31;64.96;100873.41;5058222;28;45607;-84
2023/09/15 06:52:05;;;;;;;;;13.67;13.33;;;;;19.49;64.47;100879.00;5056579;28;46249;-81
2023/09/15 06:54:30;;;;;;;;;9.67;8.67;;;;;19.44;64.58;100879.44;5039454;28;45452;-84
2023/09/15 06:56:56;;;;;;;;;8.00;8.00;;;;;19.36;64.66;100881.94;5062567;28;45740;-84
2023/09/15 06:59:21;;;;;;;;;11.00;9.00;;;;;19.33;64.78;100884.91;5062765;28;45574;-84
2023/09/15 07:01:46;;;;;;;;;10.00;10.00;;;;;19.27;65.00;100866.59;5062756;28;46019;-83
2023/09/15 07:04:13;;;;;;;;;12.33;12.33;;;;;19.39;64.49;100887.06;5063142;28;45412;-83
2023/09/15 07:06:39;;;;;;;;;12.33;11.00;;;;;19.39;64.96;100880.81;5064946;28;45233;-81
2023/09/15 07:09:05;;;;;;;;;10.33;9.00;;;;;19.33;64.74;100879.53;5065507;28;45906;-84
2023/09/15 07:11:30;;;;;;;;;14.33;13.67;;;;;19.31;65.00;100868.03;5062477;28;45356;-81
2023/09/15 07:13:55;;;;;;;;;13.67;12.00;;;;;19.36;64.44;100871.16;5063211;28;45453;-85
2023/09/15 07:16:21;;;;;;;;;13.67;12.00;;;;;19.27;64.61;100866.59;5062260;28;45601;-80
2023/09/15 07:18:46;;;;;;;;;21.00;20.00;;;;;19.34;65.03;100873.13;5066257;28;45514;-82
2023/09/15 07:21:11;;;;;;;;;16.00;13.00;;;;;19.50;64.49;100869.06;5067983;28;45506;-82
2023/09/15 07:23:36;;;;;;;;;15.00;9.33;;;;;19.63;63.77;100861.63;5066895;28;45510;-84
2023/09/15 07:26:02;;;;;;;;;11.33;11.33;;;;;19.80;63.38;100874.47;5062654;28;45432;-80
2023/09/15 07:28:27;;;;;;;;;10.67;9.33;;;;;19.82;63.20;100856.28;5060384;28;45509;-80
2023/09/15 07:31:02;;;;;;;;;13.33;13.33;;;;;20.02;62.95;100860.69;5059840;28;45465;-83
2023/09/15 07:33:28;;;;;;;;;11.00;10.67;;;;;20.09;62.83;100860.16;5058866;28;45456;-80
2023/09/15 07:35:59;;;;;;;;;16.67;13.33;;;;;20.21;62.17;100856.34;5059790;28;45529;-84
2023/09/15 07:38:25;;;;;;;;;14.00;13.00;;;;;20.22;62.07;100856.19;5062812;28;45413;-82
2023/09/15 07:40:50;;;;;;;;;10.67;9.33;;;;;19.96;62.02;100810.00;5058738;28;45743;-82
2023/09/15 07:43:15;;;;;;;;;12.00;12.00;;;;;20.18;61.93;100838.56;5057965;28;55401;-79
2023/09/15 07:45:41;;;;;;;;;14.00;12.33;;;;;20.28;61.77;100846.66;5056612;28;45468;-82
2023/09/15 07:48:06;;;;;;;;;11.33;10.00;;;;;20.39;61.55;100843.81;5057823;28;45511;-85
2023/09/15 07:50:33;;;;;;;;;10.67;10.67;;;;;20.51;61.20;100844.53;5058375;28;46113;-86
2023/09/15 07:52:59;;;;;;;;;13.00;13.00;;;;;20.58;61.06;100843.84;5058790;28;45501;-83
2023/09/15 07:55:24;;;;;;;;;12.33;12.33;;;;;20.61;61.08;100842.69;5058685;28;45358;-86
2023/09/15 07:57:49;;;;;;;;;11.00;10.00;;;;;20.52;60.72;100832.75;5059921;28;45627;-85
2023/09/15 08:00:15;;;;;;;;;12.33;11.67;;;;;20.67;60.68;100847.50;5056946;28;45386;-86
2023/09/15 08:02:41;;;;;;;;;14.33;12.00;;;;;20.74;60.48;100845.09;5060400;28;45459;-83
2023/09/15 08:05:06;;;;;;;;;12.67;10.67;;;;;20.73;60.30;100829.88;5059086;28;45717;-84
2023/09/15 08:07:32;;;;;;;;;16.33;13.33;;;;;20.71;60.26;100815.66;5057362;28;45657;-80
2023/09/15 08:09:58;;;;;;;;;13.00;11.33;;;;;20.80;60.10;100825.56;5055317;28;45728;-80
2023/09/15 08:12:24;;;;;;;;;14.33;13.00;;;;;20.98;60.12;100837.34;5057227;28;45359;-84
2023/09/15 08:14:50;;;;;;;;;14.67;14.67;;;;;20.85;59.79;100816.03;5058809;28;45363;-91
2023/09/15 08:17:16;;;;;;;;;12.00;12.00;;;;;20.99;59.41;100825.53;5057271;28;45538;-86
2023/09/15 08:19:42;;;;;;;;;15.67;12.33;;;;;20.97;59.42;100807.75;5055610;28;45940;-85
2023/09/15 08:22:07;;;;;;;;;11.67;11.33;;;;;21.06;59.25;100807.69;5055214;28;46578;-85
2023/09/15 08:24:32;;;;;;;;;14.67;12.33;;;;;21.09;59.25;100820.06;5057914;28;45372;-87
2023/09/15 08:26:58;;;;;;;;;12.33;11.00;;;;;21.19;59.23;100827.16;5058169;28;59116;-82
2023/09/15 08:29:23;;;;;;;;;16.33;14.00;;;;;21.25;58.92;100836.56;5056677;28;46721;-86
2023/09/15 08:31:49;;;;;;;;;11.00;11.00;;;;;21.28;59.00;100825.44;5057381;28;45689;-79
2023/09/15 08:34:14;;;;;;;;;10.67;10.67;;;;;21.38;58.69;100836.22;5050368;28;60368;-82
2023/09/15 08:36:39;;;;;;;;;16.33;13.67;;;;;21.38;58.49;100828.13;5057968;28;45600;-86
2023/09/15 08:39:05;;;;;;;;;14.00;12.00;;;;;21.38;58.43;100841.63;5057236;28;46135;-84
2023/09/15 08:41:34;;;;;;;;;13.00;11.00;;;;;21.36;58.54;100849.06;5057127;28;45464;-79
2023/09/15 08:44:00;;;;;;;;;13.00;13.00;;;;;21.21;58.66;100830.56;5067906;28;45407;-83
2023/09/15 08:46:28;;;;;;;;;11.33;11.33;;;;;21.33;58.43;100846.63;5062419;28;45432;-87
2023/09/15 08:48:57;;;;;;;;;11.00;11.00;;;;;21.34;58.80;100826.69;5062368;28;46123;-87
2023/09/15 08:51:27;;;;;;;;;12.00;12.00;;;;;21.50;58.55;100845.84;5066001;28;45228;-85
2023/09/15 08:53:56;;;;;;;;;13.33;12.33;;;;;21.60;58.43;100846.63;5068930;28;45521;-80
2023/09/15 08:56:23;;;;;;;;;17.67;12.33;;;;;21.58;58.01;100821.56;5069574;28;45488;-79
2023/09/15 08:58:50;;;;;;;;;14.67;14.67;;;;;21.63;57.71;100824.69;5069064;28;45083;-82
2023/09/15 09:01:18;;;;;;;;;8.67;7.67;;;;;21.81;57.15;100843.66;5069618;28;45388;-86
2023/09/15 09:03:45;;;;;;;;;13.67;13.67;;;;;21.77;58.01;100837.72;5062240;28;45449;-85
2023/09/15 09:06:15;;;;;;;;;13.67;10.00;;;;;21.88;57.10;100835.81;5074803;28;45318;-81
2023/09/15 09:08:42;;;;;;;;;13.33;12.67;;;;;21.97;57.42;100845.69;5080141;27;45481;-80
2023/09/15 09:11:08;;;;;;;;;11.00;11.00;;;;;21.99;56.71;100841.81;5095307;27;45442;-84
2023/09/15 09:13:34;;;;;;;;;10.00;10.00;;;;;21.74;56.68;100800.09;5062156;28;45411;-85
2023/09/15 09:16:00;;;;;;;;;10.67;10.67;;;;;21.93;56.90;100830.75;5058513;28;45572;-81
2023/09/15 09:18:26;;;;;;;;;13.33;11.33;;;;;22.00;56.70;100829.13;5058614;28;47942;-80
2023/09/15 09:20:51;;;;;;;;;6.00;6.00;;;;;22.10;56.82;100831.81;5063552;28;45330;-83
2023/09/15 09:23:18;;;;;;;;;14.00;11.33;;;;;22.12;56.40;100824.38;5057424;28;45357;-81
2023/09/15 09:25:45;;;;;;;;;13.67;12.00;;;;;22.17;56.88;100822.06;5058732;28;45364;-83
2023/09/15 09:28:11;;;;;;;;;14.33;13.67;;;;;22.26;56.72;100821.97;5062277;28;45272;-80
2023/09/15 09:30:38;;;;;;;;;13.33;13.33;;;;;22.17;56.45;100798.53;5062081;28;45341;-83
2023/09/15 09:33:08;;;;;;;;;15.00;12.00;;;;;22.29;56.16;100809.97;5057327;28;45499;-82
2023/09/15 09:35:34;;;;;;;;;8.67;8.67;;;;;22.37;56.11;100819.00;5055903;28;45488;-79
2023/09/15 09:38:00;;;;;;;;;12.67;10.33;;;;;22.29;55.49;100815.41;5056828;28;45350;-82
2023/09/15 09:40:26;;;;;;;;;13.00;12.00;;;;;22.18;55.92;100807.50;5056483;28;45377;-80
2023/09/15 09:42:53;;;;;;;;;10.00;10.00;;;;;22.37;55.91;100820.88;5056084;28;45545;-79
2023/09/15 09:45:28;;;;;;;;;9.33;9.33;;;;;22.39;55.81;100810.72;5056442;28;45611;-83
2023/09/15 09:48:00;;;;;;;;;11.00;11.00;;;;;22.47;55.67;100815.38;5058035;28;45551;-85
2023/09/15 09:50:26;;;;;;;;;11.67;11.67;;;;;22.48;55.48;100789.97;5058029;28;45357;-86
2023/09/15 09:52:52;;;;;;;;;10.33;10.33;;;;;22.64;55.22;100807.19;5056941;27;45438;-80
2023/09/15 09:55:17;;;;;;;;;14.33;9.33;;;;;22.73;54.61;100810.81;5056706;28;45451;-80
2023/09/15 09:57:42;;;;;;;;;10.33;10.33;;;;;22.79;55.22;100817.47;5056366;28;46143;-79
2023/09/15 10:00:17;;;;;;;;;10.00;8.00;;;;;22.69;55.07;100806.72;5056156;28;65244;-81
2023/09/15 10:02:43;;;;;;;;;9.00;8.00;;;;;22.84;55.23;100805.16;5061564;28;45386;-80
2023/09/15 10:05:08;;;;;;;;;12.33;11.67;;;;;22.94;55.21;100814.03;5060686;28;45429;-80
2023/09/15 10:07:35;;;;;;;;;14.33;10.67;;;;;22.92;55.26;100813.38;5059369;28;45473;-83
2023/09/15 10:10:02;;;;;;;;;9.33;9.33;;;;;22.98;55.02;100811.84;5065162;28;45421;-83
2023/09/15 10:12:28;;;;;;;;;8.67;7.00;;;;;22.92;55.36;100775.41;5064362;28;45323;-83
2023/09/15 10:14:54;;;;;;;;;11.67;11.67;;;;;23.10;54.50;100788.00;5065798;28;45318;-84
2023/09/15 10:17:20;;;;;;;;;14.00;9.00;;;;;23.33;53.83;100797.28;5063916;28;47691;-85
2023/09/15 10:19:48;;;;;;;;;10.00;8.75;;;;;23.47;54.01;100799.38;5065759;28;45145;-82
2023/09/15 10:22:15;;;;;;;;;10.67;9.00;;;;;23.59;52.97;100789.09;5064879;28;45807;-81
2023/09/15 10:24:47;;;;;;;;;6.33;5.33;;;;;23.67;52.72;100775.53;5051176;28;45459;-85
2023/09/15 10:27:12;;;;;;;;;7.25;7.25;;;;;23.89;52.96;100790.34;5056511;28;45505;-86
2023/09/15 10:29:38;;;;;;;;;7.50;7.50;;;;;24.08;51.75;100781.00;5067119;28;45358;-82
2023/09/15 10:32:04;;;;;;;;;10.75;9.00;;;;;24.24;51.15;100767.44;5064023;28;45440;-82
2023/09/15 10:34:32;;;;;;;;;8.00;8.00;;;;;24.43;50.17;100766.25;5058776;28;45567;-80
2023/09/15 10:37:01;;;;;;;;;8.25;7.50;;;;;24.59;49.96;100770.81;5068110;28;46430;-86
2023/09/15 10:39:38;;;;;;;;;7.75;6.50;;;;;24.67;49.70;100755.34;5070551;28;45482;-85
2023/09/15 10:42:13;;;;;;;;;6.75;6.50;;;;;25.02;49.08;100763.28;5065769;28;45291;-87
2023/09/15 10:44:41;;;;;;;;;10.75;7.25;;;;;25.35;48.18;100755.81;5081775;28;45541;-83
2023/09/15 10:47:20;;;;;;;;;9.25;6.75;;;;;25.67;48.53;100755.66;5072330;28;45623;-86
2023/09/15 10:49:53;;;;;;;;;11.00;6.50;;;;;25.95;47.82;100744.25;5073903;28;45866;-88
2023/09/15 10:52:32;;;;;;;;;6.50;6.50;;;;;26.22;47.13;100749.13;5074439;27;45456;-86
2023/09/15 10:54:57;;;;;;;;;8.00;6.25;;;;;26.40;46.18;100733.28;5081175;27;45555;-89
2023/09/15 10:57:23;;;;;;;;;10.00;8.00;;;;;26.69;45.35;100734.34;5071131;28;48624;-87
2023/09/15 10:59:51;;;;;;;;;6.50;6.50;;;;;27.12;45.23;100732.69;5072854;27;45464;-84
2023/09/15 11:02:16;;;;;;;;;7.50;7.50;;;;;27.32;43.89;100714.66;5041138;28;45343;-86
2023/09/15 11:04:43;;;;;;;;;7.25;7.25;;;;;27.67;43.76;100712.16;5051116;28;45398;-82
2023/09/15 11:07:09;;;;;;;;;6.25;6.25;;;;;28.08;43.06;100722.41;5059990;28;45498;-83
2023/09/15 11:09:35;;;;;;;;;7.40;6.80;;;;;28.21;42.71;100687.81;5059235;28;45361;-80
2023/09/15 11:12:02;;;;;;;;;6.25;6.00;;;;;28.51;41.06;100687.63;5059096;28;45325;-83